Time;durP1;ratioP1;P1;durP2;ratioP2;P2;SDS_P1;SDS_P2;PMS_P1;PMS_P2;Temp;Humidity;BMP_temperature;BMP_pressure;BME280_temperature;BME280_humidity;BME280_pressure;Samples;Min_cycle;Max_cycle;Signal;HPM_P1;HPM_P2
2023/11/02 00:01:07;;;;;;;10.98;5.22;;;;;;;16.23;62.04;99757.56;6219582;23;20445;-83
2023/11/02 00:03:34;;;;;;;9.77;6.00;;;;;;;15.51;65.60;99745.59;6220193;23;20012;-82
2023/11/02 00:06:20;;;;;;;10.02;5.28;;;;;;;15.82;64.79;99757.38;6220290;23;20461;-83
2023/11/02 00:09:30;;;;;;;13.18;5.65;;;;;;;15.48;66.11;99730.81;6221835;23;20058;-83
2023/11/02 00:12:02;;;;;;;12.75;5.63;;;;;;;15.63;65.63;99730.91;6219746;23;20004;-83
2023/11/02 00:14:34;;;;;;;10.63;5.28;;;;;;;15.31;66.95;99704.09;6219923;23;20015;-83
2023/11/02 00:17:00;;;;;;;10.40;5.55;;;;;;;15.42;67.76;99716.50;6219470;23;20035;-83
2023/11/02 00:19:36;;;;;;;9.38;5.20;;;;;;;15.37;67.14;99721.06;6220125;23;20031;-83
2023/11/02 00:22:10;;;;;;;8.85;5.10;;;;;;;15.31;66.75;99709.47;6221187;23;20001;-83
2023/11/02 00:24:36;;;;;;;8.52;5.72;;;;;;;15.14;68.11;99724.91;6216701;23;20012;-80
2023/11/02 00:27:02;;;;;;;11.95;5.68;;;;;;;15.07;67.65;99722.47;6217972;23;20009;-83
2023/11/02 00:29:28;;;;;;;8.38;5.80;;;;;;;14.85;69.35;99723.38;6216484;23;20008;-83
2023/11/02 00:31:53;;;;;;;8.35;5.85;;;;;;;15.03;67.67;99718.66;6215931;23;20013;-82
2023/11/02 00:34:19;;;;;;;10.00;5.32;;;;;;;15.02;67.44;99730.50;6215821;23;20008;-82
2023/11/02 00:36:45;;;;;;;10.18;5.93;;;;;;;14.96;67.71;99712.72;6216378;23;20008;-82
2023/11/02 00:39:11;;;;;;;9.75;5.55;;;;;;;14.81;69.79;99724.13;6215193;23;20457;-82
2023/11/02 00:41:37;;;;;;;14.32;5.80;;;;;;;15.42;66.19;99716.50;6215936;23;20005;-82
2023/11/02 00:44:04;;;;;;;10.48;6.05;;;;;;;15.43;64.60;99711.97;6214831;23;20005;-83
2023/11/02 00:46:32;;;;;;;11.05;5.85;;;;;;;15.52;63.73;99698.84;6217076;23;20055;-82
2023/11/02 00:48:57;;;;;;;11.40;5.50;;;;;;;15.48;63.38;99698.56;6213638;23;20465;-82
2023/11/02 00:51:30;;;;;;;10.70;5.93;;;;;;;15.60;63.81;99701.03;6212578;23;20015;-82
2023/11/02 00:53:56;;;;;;;10.55;5.85;;;;;;;15.53;63.84;99706.66;6213464;23;20009;-83
2023/11/02 00:56:24;;;;;;;11.50;6.10;;;;;;;15.56;64.25;99711.50;6211182;23;20452;-82
2023/11/02 00:58:52;;;;;;;12.07;5.47;;;;;;;15.82;63.24;99720.53;6210840;23;20028;-83
2023/11/02 01:01:21;;;;;;;11.77;6.03;;;;;;;15.54;64.68;99716.31;6210327;23;20414;-83
2023/11/02 01:03:49;;;;;;;9.88;5.70;;;;;;;15.70;63.85;99721.78;6211907;23;20083;-82
2023/11/02 01:06:21;;;;;;;10.32;5.57;;;;;;;15.60;64.29;99674.97;6211396;23;20030;-83
2023/11/02 01:08:54;;;;;;;10.18;5.63;;;;;;;15.60;63.56;99674.97;6211556;23;20394;-83
2023/11/02 01:11:22;;;;;;;12.40;5.72;;;;;;;15.31;65.78;99701.41;6209633;23;20062;-83
2023/11/02 01:13:47;;;;;;;10.80;5.50;;;;;;;14.66;67.90;99706.00;6210848;23;20489;-82
2023/11/02 01:16:14;;;;;;;9.48;5.47;;;;;;;15.07;67.00;99719.78;6211209;23;20005;-82
2023/11/02 01:18:44;;;;;;;11.90;6.15;;;;;;;15.09;67.53;99723.00;6209520;23;20032;-82
2023/11/02 01:21:10;;;;;;;13.00;6.07;;;;;;;14.82;68.98;99717.69;6211738;23;20008;-82
2023/11/02 01:23:36;;;;;;;12.80;6.13;;;;;;;14.55;70.04;99706.97;6208733;23;20008;-82
2023/11/02 01:26:05;;;;;;;9.85;5.50;;;;;;;14.41;70.42;99712.72;6209283;23;20013;-82
2023/11/02 01:29:03;;;;;;;8.40;5.47;;;;;;;15.01;67.75;99715.44;6209993;23;20012;-82
2023/11/02 01:31:35;;;;;;;9.95;5.93;;;;;;;15.28;66.86;99709.97;6159390;23;20008;-82
2023/11/02 01:34:04;;;;;;;9.95;6.78;;;;;;;14.99;68.45;99706.81;6209853;23;20005;-83
2023/11/02 01:36:38;;;;;;;10.32;6.22;;;;;;;15.07;68.31;99700.97;6209111;23;20065;-81
2023/11/02 01:39:09;;;;;;;9.85;6.68;;;;;;;14.97;69.09;99703.59;6209266;23;20054;-81
2023/11/02 01:41:57;;;;;;;12.77;6.60;;;;;;;15.01;68.29;99710.06;6210648;23;20032;-82
2023/11/02 01:44:58;;;;;;;12.98;6.35;;;;;;;14.99;67.85;99666.53;6200933;23;20005;-82
2023/11/02 01:47:47;;;;;;;9.90;6.18;;;;;;;15.29;67.89;99700.06;6210500;23;20016;-82
2023/11/02 01:50:19;;;;;;;12.23;6.70;;;;;;;15.49;66.52;99708.25;6209885;23;20020;-82
2023/11/02 01:52:47;;;;;;;9.88;6.55;;;;;;;15.68;65.62;99703.25;6209642;23;20023;-82
2023/11/02 01:55:25;;;;;;;11.90;6.68;;;;;;;15.59;65.53;99691.34;6210923;23;20009;-82
2023/11/02 02:01:26;;;;;;;9.75;6.47;;;;;;;14.89;69.08;99674.53;6211400;23;20035;-83
2023/11/02 02:04:36;;;;;;;10.60;6.97;;;;;;;15.34;67.62;99692.03;6211231;23;20460;-82
2023/11/02 02:07:09;;;;;;;12.13;6.30;;;;;;;15.31;67.15;99681.81;6211509;23;20001;-82
2023/11/02 02:10:11;;;;;;;12.07;6.75;;;;;;;15.13;67.64;99697.25;6209282;23;20020;-82
2023/11/02 02:13:01;;;;;;;13.30;6.22;;;;;;;15.34;66.43;99683.97;6210901;23;20055;-82
2023/11/02 02:15:44;;;;;;;12.30;6.25;;;;;;;14.99;67.99;99663.84;6211096;23;20082;-81
2023/11/02 02:18:15;;;;;;;10.88;6.40;;;;;;;14.73;69.62;99687.84;6211396;23;20020;-82
2023/11/02 02:20:47;;;;;;;11.85;6.05;;;;;;;14.49;71.06;99670.41;6210458;23;20062;-82
2023/11/02 02:23:25;;;;;;;12.02;6.68;;;;;;;15.12;68.87;99666.13;6210761;23;20024;-83
2023/11/02 02:26:12;;;;;;;11.98;6.80;;;;;;;15.42;67.66;99668.16;6211108;23;20019;-82
2023/11/02 02:29:04;;;;;;;9.95;6.10;;;;;;;15.30;67.50;99647.94;6210755;23;20087;-82
2023/11/02 02:32:12;;;;;;;9.73;6.47;;;;;;;15.23;66.95;99630.16;6211129;23;20001;-81
2023/11/02 02:34:56;;;;;;;12.00;6.00;;;;;;;15.32;67.12;99633.16;6211195;23;20393;-82
2023/11/02 02:37:47;;;;;;;10.85;6.18;;;;;;;15.15;68.75;99646.78;6213100;23;20423;-81
2023/11/02 02:40:21;;;;;;;13.93;6.68;;;;;;;15.20;69.35;99646.81;6209386;23;20059;-82
2023/11/02 02:42:49;;;;;;;10.50;6.38;;;;;;;15.25;69.48;99651.41;6211608;23;20402;-82
2023/11/02 02:45:15;;;;;;;10.10;6.47;;;;;;;15.31;67.76;99646.88;6210559;23;20030;-82
2023/11/02 02:47:43;;;;;;;10.48;6.32;;;;;;;15.42;66.93;99657.41;6210435;23;20023;-82
2023/11/02 02:50:12;;;;;;;10.73;7.30;;;;;;;14.86;68.85;99638.28;6211528;23;20315;-82
2023/11/02 02:52:40;;;;;;;11.18;6.60;;;;;;;15.19;67.24;99637.13;6212356;23;20015;-82
2023/11/02 02:55:09;;;;;;;10.95;7.13;;;;;;;15.12;67.72;99617.78;6210627;23;20486;-82
2023/11/02 02:57:41;;;;;;;12.88;8.32;;;;;;;15.21;67.62;99623.44;6212452;23;20000;-82
2023/11/02 03:00:08;;;;;;;11.43;7.00;;;;;;;15.06;68.35;99611.56;6211031;23;20431;-82
2023/11/02 03:02:34;;;;;;;11.43;6.60;;;;;;;15.24;68.18;99623.75;6210835;23;20004;-82
2023/11/02 03:05:03;;;;;;;9.90;5.72;;;;;;;15.26;67.88;99616.22;6210214;23;20019;-82
2023/11/02 03:07:31;;;;;;;13.25;5.90;;;;;;;14.81;70.55;99622.94;6210393;23;20013;-82
2023/11/02 03:10:02;;;;;;;8.68;5.75;;;;;;;14.91;69.58;99605.28;6210156;23;20009;-82
2023/11/02 03:12:31;;;;;;;9.30;6.20;;;;;;;14.83;70.46;99606.56;6210153;23;20143;-82
2023/11/02 03:15:05;;;;;;;10.15;5.97;;;;;;;14.45;71.37;99570.84;6211945;23;20001;-82
2023/11/02 03:17:33;;;;;;;11.10;6.32;;;;;;;14.76;70.53;99587.19;6210656;23;20350;-82
2023/11/02 03:19:59;;;;;;;9.60;6.70;;;;;;;14.82;69.90;99584.28;6210051;23;20015;-82
2023/11/02 03:22:26;;;;;;;13.43;6.47;;;;;;;14.74;70.36;99579.38;6211126;23;20016;-82
2023/11/02 03:25:00;;;;;;;12.73;6.28;;;;;;;15.02;69.66;99588.16;6212006;23;20005;-82
2023/11/02 03:27:37;;;;;;;14.30;6.55;;;;;;;14.90;69.81;99585.69;6209994;23;20447;-81
2023/11/02 03:30:11;;;;;;;12.40;6.38;;;;;;;14.80;70.22;99588.28;6210273;23;20062;-82
2023/11/02 03:32:41;;;;;;;11.77;6.68;;;;;;;14.45;72.03;99582.38;6186713;23;20520;-82
2023/11/02 03:35:18;;;;;;;11.40;6.80;;;;;;;14.01;74.18;99576.34;6210347;23;20007;-82
2023/11/02 03:37:57;;;;;;;12.45;7.90;;;;;;;14.26;72.53;99551.63;6210263;23;20058;-82
2023/11/02 03:40:25;;;;;;;10.52;6.47;;;;;;;14.45;71.87;99570.84;6210407;23;20005;-82
2023/11/02 03:43:14;;;;;;;11.25;6.93;;;;;;;13.88;73.42;99553.44;6211907;23;20421;-82
2023/11/02 03:45:59;;;;;;;10.00;7.05;;;;;;;14.46;71.59;99554.50;6210089;23;20058;-83
2023/11/02 03:48:30;;;;;;;12.55;6.95;;;;;;;14.40;71.21;99550.13;6210179;23;20023;-82
2023/11/02 03:51:13;;;;;;;12.45;6.95;;;;;;;14.55;71.74;99572.81;6211281;23;20008;-82
2023/11/02 03:54:19;;;;;;;12.88;7.07;;;;;;;14.27;73.26;99566.66;6211601;23;20012;-81
2023/11/02 03:57:06;;;;;;;11.18;6.80;;;;;;;13.90;74.44;99556.69;6196524;23;20012;-82
2023/11/02 03:59:51;;;;;;;11.52;6.78;;;;;;;13.80;75.77;99578.81;6211708;23;20079;-82
2023/11/02 04:02:28;;;;;;;11.73;7.32;;;;;;;13.73;74.50;99550.59;6209832;23;20012;-83
2023/11/02 04:05:03;;;;;;;10.48;6.70;;;;;;;13.86;74.81;99574.31;6210088;23;20135;-82
2023/11/02 04:07:29;;;;;;;10.98;6.35;;;;;;;14.00;74.16;99588.94;6209893;23;20001;-83
2023/11/02 04:10:03;;;;;;;10.95;6.93;;;;;;;13.77;74.44;99551.69;6209484;23;20012;-82
2023/11/02 04:12:40;;;;;;;11.73;7.22;;;;;;;13.45;77.00;99571.19;6209979;23;20028;-82
2023/11/02 04:15:09;;;;;;;11.93;7.78;;;;;;;13.46;77.81;99575.47;6210528;23;20012;-82
2023/11/02 04:17:36;;;;;;;11.43;7.10;;;;;;;13.53;77.33;99578.78;6209737;23;20013;-83
2023/11/02 04:20:03;;;;;;;10.38;6.80;;;;;;;13.22;79.53;99583.75;6211564;23;20008;-82
2023/11/02 04:22:28;;;;;;;11.32;7.05;;;;;;;13.50;78.19;99573.91;6211401;23;20009;-82
2023/11/02 04:24:54;;;;;;;10.63;6.47;;;;;;;14.05;75.79;99588.97;6209550;23;20062;-82
2023/11/02 04:27:20;;;;;;;10.88;6.55;;;;;;;14.14;75.19;99578.63;6209231;23;20036;-82
2023/11/02 04:29:45;;;;;;;12.10;6.80;;;;;;;14.21;74.15;99581.09;6209449;23;20012;-82
2023/11/02 04:32:11;;;;;;;15.65;7.10;;;;;;;14.24;73.36;99567.16;6211040;23;20060;-82
2023/11/02 04:34:36;;;;;;;11.30;7.45;;;;;;;14.24;72.98;99570.66;6209861;23;20010;-82
2023/11/02 04:37:11;;;;;;;13.32;8.07;;;;;;;14.15;73.21;99560.66;6208175;23;20015;-82
2023/11/02 04:39:37;;;;;;;14.95;8.15;;;;;;;14.36;73.11;99591.94;6210473;23;20001;-82
2023/11/02 04:42:02;;;;;;;11.05;7.80;;;;;;;13.89;75.20;99589.88;6209055;23;20012;-82
2023/11/02 04:44:27;;;;;;;14.27;8.68;;;;;;;14.13;73.86;99586.91;6208619;23;20020;-82
2023/11/02 04:46:53;;;;;;;14.68;9.35;;;;;;;14.30;72.48;99592.97;6210051;23;20096;-82
2023/11/02 04:49:18;;;;;;;16.30;9.77;;;;;;;14.11;72.78;99572.94;6209243;23;20016;-82
2023/11/02 04:51:59;;;;;;;18.33;9.40;;;;;;;14.28;72.08;99605.81;6210448;23;20008;-81
2023/11/02 04:54:29;;;;;;;13.38;9.43;;;;;;;14.13;72.58;99582.34;6208687;23;20107;-82
2023/11/02 04:56:55;;;;;;;20.77;9.65;;;;;;;14.17;72.71;99579.97;6208646;23;20012;-81
2023/11/02 04:59:21;;;;;;;21.65;9.45;;;;;;;13.79;73.94;99592.47;6208624;23;20011;-83
2023/11/02 05:01:48;;;;;;;16.73;9.10;;;;;;;13.85;74.56;99604.84;6208956;23;20005;-81
2023/11/02 05:04:14;;;;;;;17.67;9.48;;;;;;;13.99;74.21;99616.00;6208399;23;20339;-81
2023/11/02 05:06:39;;;;;;;18.90;9.20;;;;;;;13.38;76.92;99589.31;6208274;23;20051;-82
2023/11/02 05:09:05;;;;;;;18.58;10.20;;;;;;;13.34;77.92;99617.63;6210048;23;20012;-81
2023/11/02 05:11:31;;;;;;;21.65;9.70;;;;;;;13.65;76.64;99606.25;6209971;23;20403;-81
2023/11/02 05:13:56;;;;;;;19.08;8.93;;;;;;;13.36;77.74;99604.81;6208077;23;20009;-80
2023/11/02 05:16:22;;;;;;;18.95;10.05;;;;;;;13.07;79.82;99612.97;6208874;23;20009;-82
2023/11/02 05:18:47;;;;;;;16.92;9.52;;;;;;;13.35;78.61;99593.31;6208500;23;20008;-81
2023/11/02 05:21:13;;;;;;;18.35;10.32;;;;;;;13.42;77.91;99603.81;6208780;23;20104;-81
2023/11/02 05:23:38;;;;;;;18.13;10.10;;;;;;;13.36;77.52;99594.09;6208538;23;20013;-81
2023/11/02 05:26:04;;;;;;;16.52;9.30;;;;;;;13.20;79.80;99626.03;6209692;23;20001;-81
2023/11/02 05:28:31;;;;;;;14.38;8.95;;;;;;;13.02;80.11;99620.94;6210086;23;20005;-81
2023/11/02 05:30:59;;;;;;;17.55;8.88;;;;;;;13.05;80.52;99634.63;6208582;23;20036;-82
2023/11/02 05:33:25;;;;;;;;;;;;;;;13.84;76.88;99654.19;6209121;23;20422;-81
2023/11/02 05:35:51;;;;;;;18.45;10.00;;;;;;;13.19;78.64;99631.63;6208120;23;19951;-81
2023/11/02 05:38:18;;;;;;;20.92;9.32;;;;;;;13.03;78.51;99644.75;6208773;23;20040;-81
2023/11/02 05:40:44;;;;;;;15.83;9.60;;;;;;;12.99;77.54;99632.13;6208324;23;20016;-82
2023/11/02 05:43:09;;;;;;;18.52;9.60;;;;;;;13.75;75.76;99644.94;6208191;23;20012;-82
2023/11/02 05:45:35;;;;;;;18.25;11.40;;;;;;;13.80;75.84;99637.78;6208054;23;20008;-81
2023/11/02 05:48:00;;;;;;;20.85;11.15;;;;;;;13.65;76.72;99641.09;6208473;23;20016;-82
2023/11/02 05:50:26;;;;;;;16.08;10.27;;;;;;;13.46;78.03;99670.06;6210651;23;20037;-82
2023/11/02 05:52:52;;;;;;;18.33;10.80;;;;;;;13.44;77.39;99655.28;6211944;23;20015;-81
2023/11/02 05:55:18;;;;;;;23.77;15.35;;;;;;;13.76;75.66;99659.97;6210378;23;20008;-82
2023/11/02 05:57:43;;;;;;;18.70;11.60;;;;;;;13.69;75.98;99648.63;6211614;23;20009;-81
2023/11/02 06:00:10;;;;;;;17.90;10.65;;;;;;;13.97;73.28;99632.31;6210018;23;20013;-81
2023/11/02 06:02:37;;;;;;;19.27;10.00;;;;;;;14.00;72.76;99642.56;6211786;23;20068;-81
2023/11/02 06:05:05;;;;;;;18.38;11.07;;;;;;;14.23;73.14;99668.28;6209936;23;20000;-81
2023/11/02 06:07:30;;;;;;;21.98;10.57;;;;;;;14.44;71.20;99663.94;6210905;23;20008;-81
2023/11/02 06:09:57;;;;;;;18.50;10.95;;;;;;;14.24;71.40;99659.19;6210522;23;20019;-81
2023/11/02 06:12:23;;;;;;;23.73;10.88;;;;;;;14.07;72.35;99658.44;6211907;23;20010;-81
2023/11/02 06:14:49;;;;;;;16.90;11.55;;;;;;;14.20;72.61;99670.63;6209958;23;20035;-82
2023/11/02 06:17:15;;;;;;;16.67;10.00;;;;;;;14.63;70.66;99693.91;6210020;23;20008;-82
2023/11/02 06:19:40;;;;;;;19.17;10.88;;;;;;;14.62;70.20;99675.38;6209774;23;20059;-81
2023/11/02 06:22:05;;;;;;;19.35;10.55;;;;;;;14.84;68.48;99673.41;6210176;23;20036;-81
2023/11/02 06:24:31;;;;;;;17.75;10.85;;;;;;;14.80;67.54;99666.94;6210364;23;20005;-81
2023/11/02 06:26:56;;;;;;;18.17;10.52;;;;;;;14.89;68.21;99679.91;6210373;23;20514;-81
2023/11/02 06:29:22;;;;;;;17.63;9.50;;;;;;;15.00;68.14;99666.28;6211745;23;20009;-82
2023/11/02 06:31:47;;;;;;;16.38;9.98;;;;;;;15.02;68.29;99653.41;6210369;23;20016;-81
2023/11/02 06:34:15;;;;;;;24.75;9.70;;;;;;;15.14;67.22;99655.09;6210167;23;20000;-81
2023/11/02 06:36:40;;;;;;;;;;;;;;;15.19;67.50;99664.00;6210602;23;20446;-82
2023/11/02 06:39:06;;;;;;;24.40;9.37;;;;;;;15.47;66.82;99659.31;6210209;23;19912;-81
2023/11/02 06:41:31;;;;;;;20.73;9.80;;;;;;;15.76;66.58;99645.50;6211172;23;20236;-81
2023/11/02 06:43:57;;;;;;;15.27;9.43;;;;;;;15.73;65.14;99627.19;6209537;23;20521;-81
2023/11/02 06:46:22;;;;;;;15.93;8.57;;;;;;;15.81;66.49;99624.00;6210180;23;20042;-80
2023/11/02 06:48:48;;;;;;;14.98;8.85;;;;;;;16.26;63.93;99630.56;6209840;23;20101;-82
2023/11/02 06:51:14;;;;;;;18.42;9.23;;;;;;;15.94;65.18;99604.69;6209689;23;20000;-81
2023/11/02 06:53:40;;;;;;;17.58;9.23;;;;;;;16.34;64.21;99640.00;6211201;23;20494;-82
2023/11/02 06:56:06;;;;;;;12.90;9.00;;;;;;;16.27;65.43;99624.13;6211188;23;20083;-81
2023/11/02 06:58:31;;;;;;;14.20;8.93;;;;;;;16.60;63.47;99628.16;6211222;23;20032;-81
2023/11/02 07:00:57;;;;;;;12.88;9.15;;;;;;;16.44;64.40;99630.03;6208885;23;20076;-82
2023/11/02 07:03:22;;;;;;;15.70;10.90;;;;;;;16.24;65.75;99614.72;6209428;23;20470;-81
2023/11/02 07:05:48;;;;;;;15.43;11.95;;;;;;;16.50;65.35;99646.22;6209871;23;20009;-83
2023/11/02 07:08:13;;;;;;;14.65;10.55;;;;;;;16.30;67.10;99639.72;6208970;23;20438;-82
2023/11/02 07:10:38;;;;;;;29.92;15.80;;;;;;;16.15;66.55;99629.75;6208559;23;20017;-83
2023/11/02 07:13:04;;;;;;;26.55;15.35;;;;;;;16.47;66.07;99629.50;6209336;23;20104;-82
2023/11/02 07:15:32;;;;;;;40.40;22.38;;;;;;;16.54;64.75;99623.06;6209430;23;20092;-83
2023/11/02 07:17:57;;;;;;;44.08;22.08;;;;;;;16.81;65.27;99634.38;6210085;23;20001;-83
2023/11/02 07:20:23;;;;;;;38.13;18.58;;;;;;;16.47;66.48;99618.75;6209534;23;20005;-83
2023/11/02 07:22:48;;;;;;;40.90;22.00;;;;;;;16.32;67.02;99621.41;6210248;23;20087;-83
2023/11/02 07:25:14;;;;;;;17.65;8.98;;;;;;;16.45;69.01;99614.72;6209488;23;20087;-83
2023/11/02 07:27:39;;;;;;;10.90;6.18;;;;;;;16.67;67.90;99619.81;6209815;23;20023;-83
2023/11/02 07:30:06;;;;;;;13.63;7.80;;;;;;;16.55;68.93;99614.72;6209203;23;20051;-82
2023/11/02 07:32:32;;;;;;;19.38;9.93;;;;;;;17.01;66.88;99617.38;6208992;23;20013;-80
2023/11/02 07:34:57;;;;;;;12.77;7.90;;;;;;;16.97;67.57;99610.13;6211251;23;20009;-83
2023/11/02 07:37:23;;;;;;;18.25;10.38;;;;;;;17.02;67.02;99592.06;6209939;23;20087;-82
2023/11/02 07:39:48;;;;;;;16.38;8.82;;;;;;;17.26;67.07;99619.22;6209024;23;20094;-81
2023/11/02 07:42:14;;;;;;;21.42;12.25;;;;;;;17.15;67.78;99617.63;6209309;23;20087;-82
2023/11/02 07:44:39;;;;;;;46.47;18.70;;;;;;;17.04;68.08;99589.91;6211156;23;20036;-82
2023/11/02 07:47:05;;;;;;;26.48;15.63;;;;;;;16.90;67.93;99588.88;6209977;23;20012;-82
2023/11/02 07:49:30;;;;;;;10.98;6.00;;;;;;;16.98;67.36;99590.19;6209187;23;20358;-83
2023/11/02 07:51:55;;;;;;;12.85;6.28;;;;;;;17.04;67.52;99594.47;6210161;23;20092;-82
2023/11/02 07:54:21;;;;;;;10.90;5.82;;;;;;;17.30;66.50;99605.19;6208149;23;20091;-82
2023/11/02 07:56:47;;;;;;;13.02;5.88;;;;;;;17.51;65.42;99601.34;6209196;23;20008;-83
2023/11/02 07:59:12;;;;;;;11.20;5.82;;;;;;;17.55;66.72;99597.03;6209911;23;20001;-82
2023/11/02 08:01:38;;;;;;;11.80;6.07;;;;;;;17.58;65.80;99604.53;6209129;23;20040;-82
2023/11/02 08:04:04;;;;;;;14.20;6.10;;;;;;;17.79;64.61;99599.84;6209130;23;20027;-82
2023/11/02 08:06:32;;;;;;;13.88;6.00;;;;;;;17.54;66.87;99611.56;6208858;23;20008;-83
2023/11/02 08:08:57;;;;;;;9.27;4.70;;;;;;;17.18;68.58;99595.53;6210805;23;20015;-83
2023/11/02 08:11:23;;;;;;;8.82;4.10;;;;;;;17.08;69.74;99606.34;6208768;23;20009;-81
2023/11/02 08:13:50;;;;;;;11.48;5.28;;;;;;;17.66;69.59;99612.06;6210552;23;20005;-84
2023/11/02 08:16:20;;;;;;;19.95;7.40;;;;;;;17.84;68.39;99613.34;6208798;23;20008;-83
2023/11/02 08:18:46;;;;;;;12.95;4.82;;;;;;;17.55;69.65;99607.81;6208896;23;20461;-81
2023/11/02 08:21:11;;;;;;;13.13;6.05;;;;;;;17.78;68.78;99608.25;6208605;23;20001;-80
2023/11/02 08:23:37;;;;;;;10.68;5.70;;;;;;;17.81;69.69;99615.75;6210862;23;20522;-81
2023/11/02 08:26:02;;;;;;;18.15;7.03;;;;;;;18.04;69.17;99619.72;6210938;23;20014;-82
2023/11/02 08:28:27;;;;;;;16.73;7.60;;;;;;;18.06;68.49;99615.66;6208960;23;20012;-81
2023/11/02 08:30:53;;;;;;;13.40;6.90;;;;;;;17.98;68.89;99583.88;6210226;23;20009;-82
2023/11/02 08:33:18;;;;;;;11.85;6.13;;;;;;;18.32;67.58;99588.47;6208177;23;20040;-80
2023/11/02 08:35:44;;;;;;;13.55;6.97;;;;;;;18.52;67.33;99605.63;6210156;23;20084;-81
2023/11/02 08:38:11;;;;;;;12.43;6.15;;;;;;;18.24;69.09;99618.78;6208312;23;20017;-81
2023/11/02 08:40:36;;;;;;;12.57;5.68;;;;;;;17.91;69.54;99602.25;6208443;23;20009;-81
2023/11/02 08:43:03;;;;;;;10.38;5.53;;;;;;;18.17;68.22;99594.00;6208369;23;20015;-81
2023/11/02 08:45:28;;;;;;;16.20;6.20;;;;;;;18.17;68.42;99594.00;6210279;23;20446;-82
2023/11/02 08:47:53;;;;;;;11.75;5.65;;;;;;;18.35;67.45;99600.59;6209921;23;20015;-80
2023/11/02 08:50:19;;;;;;;10.90;5.32;;;;;;;18.36;67.40;99615.72;6208118;23;20008;-80
2023/11/02 08:52:45;;;;;;;14.80;6.22;;;;;;;18.24;67.77;99591.78;6208533;23;20009;-81
2023/11/02 08:55:10;;;;;;;14.70;5.82;;;;;;;18.37;68.13;99587.63;6209067;23;20032;-81
2023/11/02 08:57:35;;;;;;;15.63;6.43;;;;;;;18.11;68.42;99578.94;6207391;23;20067;-81
2023/11/02 09:00:01;;;;;;;15.52;5.93;;;;;;;18.14;69.00;99600.75;6206767;23;20036;-81
2023/11/02 09:02:27;;;;;;;11.00;5.68;;;;;;;17.89;69.27;99599.03;6208325;23;20012;-81
2023/11/02 09:04:52;;;;;;;12.13;5.18;;;;;;;17.72;70.74;99593.19;6206887;23;20018;-81
2023/11/02 09:07:21;;;;;;;10.77;5.22;;;;;;;17.97;69.67;99582.25;6207525;23;20020;-82
2023/11/02 09:09:46;;;;;;;10.80;6.00;;;;;;;17.84;69.60;99564.00;6207619;23;20009;-81
2023/11/02 09:12:12;;;;;;;14.25;6.20;;;;;;;17.72;70.18;99553.53;6208205;23;20005;-81
2023/11/02 09:14:38;;;;;;;13.35;6.07;;;;;;;17.96;69.94;99545.59;6208509;23;20001;-81
2023/11/02 09:17:03;;;;;;;12.40;5.45;;;;;;;18.34;69.00;99567.41;6208332;23;20423;-81
2023/11/02 09:19:29;;;;;;;10.27;5.32;;;;;;;18.21;67.96;99544.56;6208114;23;20087;-82
2023/11/02 09:21:55;;;;;;;12.98;5.10;;;;;;;18.14;68.08;99529.78;6207876;23;20004;-82
2023/11/02 09:24:20;;;;;;;10.10;5.38;;;;;;;18.65;66.42;99553.63;6208269;23;20009;-81
2023/11/02 09:26:46;;;;;;;10.82;5.55;;;;;;;18.89;66.10;99542.09;6208412;23;20012;-82
2023/11/02 09:29:11;;;;;;;12.82;5.57;;;;;;;18.44;67.72;99543.03;6208371;23;20009;-81
2023/11/02 09:31:37;;;;;;;11.10;5.15;;;;;;;18.48;66.15;99525.16;6209594;23;20076;-81
2023/11/02 09:34:02;;;;;;;12.18;5.57;;;;;;;18.68;66.19;99526.06;6208297;23;20012;-81
2023/11/02 09:36:30;;;;;;;16.33;5.90;;;;;;;18.44;67.17;99513.31;6209874;23;20012;-81
2023/11/02 09:38:59;;;;;;;14.95;6.80;;;;;;;18.29;68.47;99505.38;6209846;23;20139;-81
2023/11/02 09:41:26;;;;;;;15.88;6.65;;;;;;;18.21;68.58;99512.19;6207760;23;20016;-81
2023/11/02 09:43:53;;;;;;;12.68;5.75;;;;;;;18.29;68.73;99513.50;6208370;23;20431;-81
2023/11/02 09:46:19;;;;;;;23.07;7.67;;;;;;;18.43;68.54;99519.84;6209649;23;20143;-81
2023/11/02 09:48:44;;;;;;;16.05;6.25;;;;;;;18.59;67.23;99508.88;6207805;23;20081;-81
2023/11/02 09:51:10;;;;;;;15.52;7.00;;;;;;;18.74;66.93;99508.72;6208030;23;20349;-80
2023/11/02 09:53:37;;;;;;;12.60;6.75;;;;;;;18.21;68.89;99492.50;6209710;23;20386;-81
2023/11/02 09:56:04;;;;;;;18.55;7.82;;;;;;;18.22;69.24;99499.50;6208293;23;20393;-81
2023/11/02 09:58:31;;;;;;;16.47;7.30;;;;;;;18.22;69.28;99491.41;6209934;23;20000;-81
2023/11/02 10:00:57;;;;;;;13.43;6.47;;;;;;;17.89;70.51;99484.94;6208026;23;20015;-81
2023/11/02 10:03:23;;;;;;;14.48;6.07;;;;;;;18.29;68.58;99489.19;6208159;23;20004;-81
2023/11/02 10:05:51;;;;;;;13.32;6.82;;;;;;;18.20;68.60;99480.88;6208039;23;20020;-81
2023/11/02 10:08:17;;;;;;;14.98;7.35;;;;;;;18.48;67.55;99473.06;6208163;23;20015;-81
2023/11/02 10:10:43;;;;;;;15.50;6.95;;;;;;;18.27;68.29;99483.28;6209661;23;20055;-81
2023/11/02 10:13:09;;;;;;;19.95;7.75;;;;;;;18.14;69.55;99500.09;6207885;23;20051;-81
2023/11/02 10:15:34;;;;;;;16.60;7.38;;;;;;;18.28;69.51;99474.06;6208475;23;20320;-81
2023/11/02 10:18:00;;;;;;;17.42;6.93;;;;;;;18.57;68.65;99482.19;6210037;23;20079;-81
2023/11/02 10:20:26;;;;;;;18.63;7.80;;;;;;;18.50;68.59;99489.00;6208082;23;20358;-80
2023/11/02 10:23:03;;;;;;;15.35;7.68;;;;;;;18.52;67.96;99486.81;6209461;23;20005;-80
2023/11/02 10:25:29;;;;;;;16.35;7.70;;;;;;;18.23;69.83;99488.44;6208167;23;20358;-81
2023/11/02 10:27:56;;;;;;;16.15;7.30;;;;;;;18.27;69.17;99480.56;6208013;23;20019;-81
2023/11/02 10:30:23;;;;;;;18.65;8.02;;;;;;;18.38;68.31;99459.69;6209377;23;20005;-81
2023/11/02 10:32:48;;;;;;;19.55;7.25;;;;;;;18.37;67.89;99475.06;6207927;23;20009;-81
2023/11/02 10:35:15;;;;;;;17.15;7.63;;;;;;;18.30;68.97;99479.19;6210166;23;20008;-81
2023/11/02 10:37:40;;;;;;;22.38;8.95;;;;;;;17.71;71.30;99452.13;6209785;23;20044;-81
2023/11/02 10:40:06;;;;;;;18.33;8.13;;;;;;;17.90;70.62;99460.38;6209875;23;20035;-80
2023/11/02 10:42:32;;;;;;;16.80;7.88;;;;;;;18.02;70.30;99433.84;6211162;23;20465;-81
2023/11/02 10:44:58;;;;;;;20.13;9.10;;;;;;;18.61;68.12;99452.69;6211392;23;20001;-80
2023/11/02 10:47:29;;;;;;;18.38;8.80;;;;;;;18.56;68.38;99431.16;6211154;23;20011;-81
2023/11/02 10:49:57;;;;;;;25.13;10.48;;;;;;;18.91;67.92;99429.16;6211593;23;20019;-82
2023/11/02 10:52:29;;;;;;;25.70;10.88;;;;;;;18.62;68.74;99413.78;6209574;23;20008;-81
2023/11/02 10:55:08;;;;;;;20.00;9.15;;;;;;;18.75;67.69;99404.19;6209437;23;20476;-81
2023/11/02 10:57:36;;;;;;;22.98;9.13;;;;;;;18.98;67.23;99433.09;6211510;23;20004;-81
2023/11/02 11:00:05;;;;;;;23.52;9.77;;;;;;;19.06;66.40;99404.59;6211294;23;20028;-81
2023/11/02 11:02:34;;;;;;;18.73;8.57;;;;;;;19.01;66.99;99396.59;6211493;23;20076;-81
2023/11/02 11:05:00;;;;;;;21.90;9.25;;;;;;;19.28;66.32;99406.75;6211182;23;20007;-80
2023/11/02 11:07:29;;;;;;;20.05;8.63;;;;;;;19.24;66.35;99406.50;6211023;23;20032;-81
2023/11/02 11:09:55;;;;;;;23.60;10.80;;;;;;;19.11;68.28;99393.75;6209332;23;20015;-81
2023/11/02 11:12:21;;;;;;;20.60;9.00;;;;;;;18.79;67.52;99384.44;6209599;23;20016;-81
2023/11/02 11:14:47;;;;;;;22.33;8.75;;;;;;;19.20;67.10;99404.69;6210885;23;20020;-80
2023/11/02 11:17:12;;;;;;;23.85;10.43;;;;;;;19.04;67.06;99391.41;6209583;23;20098;-82
2023/11/02 11:19:39;;;;;;;22.25;9.38;;;;;;;18.71;67.69;99374.25;6209299;23;20000;-80
2023/11/02 11:22:15;;;;;;;21.35;9.75;;;;;;;18.70;68.51;99378.06;6210507;23;20460;-81
2023/11/02 11:24:41;;;;;;;22.73;8.98;;;;;;;18.42;70.15;99380.53;6210342;23;20501;-80
2023/11/02 11:27:07;;;;;;;19.33;9.05;;;;;;;18.46;70.25;99370.75;6209659;23;20005;-81
2023/11/02 11:29:39;;;;;;;18.48;8.23;;;;;;;18.24;70.15;99351.59;6209468;23;20009;-80
2023/11/02 11:32:25;;;;;;;23.90;8.40;;;;;;;18.41;70.16;99367.34;6209201;23;20013;-80
2023/11/02 11:34:53;;;;;;;21.80;8.55;;;;;;;18.32;69.86;99377.94;6199511;23;20402;-80
2023/11/02 11:37:40;;;;;;;22.23;8.45;;;;;;;18.80;68.62;99372.53;6209362;23;20062;-80